Historyczne dane pomiarowe

Dodano dane terminowe – wersja testowa.

Dane z okresu 1951-2019

Wersja bazy: 1.34 [2019-03-16, lista zmian], aktualizacja planowana na 2019-04-15

Dane meteo z obszaru Polski uzyskane na podstawie danych udostępnionych przez Instytut Meteorologii i Gospodarki Wodnej – Państwowy Instytut Badawczy.

 

Wybierz Datę:    

       

TemperaturaWilgotnośćWiatrCiśnienieOpadyŚniegCzas trwania zjawisk
 Stacja t tx tn tng RH VA  wxwx mslp ppp RRR   cm mm wxwxwxwxwxwxwx
1987-08-14 14.5 17.5 9.3- 76.8- 5.0 5.0---- 1.9------------
1987-08-13 11.5 14.8 8.8- 84.8- 5.0 2.7---- 0.2------------
1987-08-12 11.1 15.5 5.9- 71.5- 2.7 3.3---- 7.2------------
1987-08-11 9.9 12.6 8.1- 75.0- 4.0 2.3---- 0.0------------
1987-08-10 10.4 13.7 8.3- 86.0- 6.7 3.0---- 2.1------------
1987-08-09 13.7 19.5 8.8- 76.5- 4.0 2.0---- 12.1------------
1987-08-08 12.7 16.2 8.4- 68.5- 4.0 3.7---- 0.0------------
1987-08-07 8.5 15.1 4.5- 70.5- 4.0 3.7---- 0.0------------
1987-08-06 7.5 9.4 5.6- 85.0- 5.7 2.0---- 3.5------------
1987-08-05 8.7 12.3 5.7- 86.8- 6.3 3.3---- 0.7------------
1987-08-04 11.8 14.1 9.1- 75.5- 4.7 2.7---- 0.0------------
1987-08-03 12.6 16.3 7.9- 77.0- 4.0 3.7---- 16.2------------
1987-08-02 10.3 12.8 8.3- 84.8- 5.3 2.3---- 1.1------------
1987-08-01 12.0 13.8 10.5- 91.5- 6.3 3.3---- 24.3------------
1987-07-31 12.6 14.5 9.1- 84.3- 7.0 0.7---- 2.8------------
1987-07-30 16.2 21.9 11.3- 75.3- 5.3 2.7---- 5.2------------
1987-07-29 10.7 14.1 8.0- 84.3- 4.3 2.7---- 0.0------------
1987-07-28 8.4 9.8 5.6- 85.0- 7.0 2.7---- 6.6------------
1987-07-27 8.4 11.9 5.5- 83.3- 6.0 2.0---- 21.1------------
1987-07-26 9.0 11.8 7.3- 77.3- 5.3 3.0---- 2.1------------
1987-07-25 13.0 18.0 11.3- 78.0- 5.7 3.3---- 0.0------------
1987-07-24 17.6 20.8 12.6- 70.8- 4.3 2.7---- 0.1------------
1987-07-23 16.8 21.9 12.0- 79.0- 2.7 1.0---- 0.0------------
1987-07-22 16.0 20.8 10.1- 84.5- 3.7 2.0---- 0.0------------
1987-07-21 12.5 17.6 10.5- 96.5- 6.7 1.3---- 2.0------------
1987-07-20 15.8 20.6 12.2- 79.3- 5.3 2.0---- 0.8------------
1987-07-19 16.0 19.5 12.1- 86.5- 5.7 2.7---- 35.6------------
1987-07-18 17.6 22.1 15.1- 79.5- 4.7 2.0---- 0.2------------
1987-07-17 22.1 27.6 16.5- 64.0- 4.7 2.3---- 0.0------------
1987-07-16 20.1 24.3 13.9- 78.8- 3.3 2.0---- 0.0------------
1987-07-15 16.4 22.7 8.1- 78.3- 0.0 0.3---- 0.0------------
1987-07-14 13.2 18.9 5.5- 72.3- 2.7 1.7---- 0.0------------
1987-07-13 13.6 16.6 8.6- 76.0- 3.7 2.0---- 0.0------------
1987-07-12 19.1 23.1 15.1- 74.5- 5.7 1.7---- 0.9------------
1987-07-11 15.5 20.7 7.4- 63.3- 4.3 4.7---- 0.0------------
1987-07-10 12.3 15.8 8.8- 69.8- 4.7 1.3---- 0.0------------
1987-07-09 14.0 16.4 11.5- 80.8- 7.3 1.7---- 0.0------------
1987-07-08 18.4 22.0 14.5- 82.5- 7.7 3.0---- 6.3------------
1987-07-07 18.9 23.0 9.8- 63.8- 5.7 3.3---- 0.0------------
1987-07-06 14.3 20.2 6.5- 75.5- 2.0 1.7---- 0.0------------
1987-07-05 12.6 16.0 9.3- 68.8- 3.0 2.0---- 0.0------------
1987-07-04 14.3 17.9 11.1- 78.8- 2.3 1.7---- 0.0------------
1987-07-03 16.3 21.3 9.1- 71.8- 1.7 1.0---- 0.0------------
1987-07-02 16.5 20.6 13.9- 75.3- 4.3 1.7---- 0.0------------
1987-07-01 22.9 28.7 19.8- 72.3- 5.7 3.0---- 2.7------------
1987-06-30 21.8 27.4 14.8- 73.3- 0.0 2.0---- 0.0------------
1987-06-29 19.4 24.6 11.8- 82.5- 3.0 0.3---- 0.0------------
1987-06-28 17.2 20.2 12.7- 71.8- 4.3 3.7---- 0.0------------
1987-06-27 14.9 19.2 12.3- 79.0- 3.0 2.3---- 0.0------------
1987-06-26 13.6 20.0 5.8- 70.5- 6.7 2.7---- 1.2------------
1987-06-25 10.8 13.3 8.9- 84.3- 5.3 1.7---- 3.2------------
1987-06-24 12.3 16.3 8.4- 73.8- 5.0 2.3---- 6.8------------
1987-06-23 11.8 14.7 7.5- 79.8- 6.0 3.7---- 1.2------------
1987-06-22 9.0 11.9 7.9- 90.8- 8.0 1.7---- 4.1------------
1987-06-21 12.3 15.5 9.7- 88.0- 7.0 2.3---- 15.7------------
1987-06-20 14.7 19.2 6.5- 65.3- 4.0 1.3---- 0.8------------
1987-06-19 9.1 13.7 4.8- 76.0- 5.7 2.3---- 0.0------------
1987-06-18 6.7 10.2 3.9- 87.3- 6.7 3.3---- 5.7------------
1987-06-17 8.2 12.5 5.7- 64.0- 5.0 5.3---- 7.4------------
1987-06-16 7.8 16.1 5.6- 91.5- 7.0 4.3---- 3.0------------
376.0 ms

 

Źródłem pochodzenia danych jest Instytut Meteorologii i Gospodarki Wodnej – Państwowy Instytut Badawczy. Dane Instytutu Meteorologii i Gospodarki Wodnej – Państwowego Instytutu Badawczego zostały przetworzone.

Dane źródłowe można odnaleźć na stronie https://dane.imgw.pl